Time;durP1;ratioP1;P1;durP2;ratioP2;P2;SDS_P1;SDS_P2;PMS_P1;PMS_P2;Temp;Humidity;BMP_temperature;BMP_pressure;BME280_temperature;BME280_humidity;BME280_pressure;Samples;Min_cycle;Max_cycle;Signal;HPM_P1;HPM_P2
2022/03/03 00:00:00;;;;;;;29.15;16.33;;;;;;;-1.15;100.00;101303.78;6029145;29;20057;-89
2022/03/03 00:03:12;;;;;;;26.75;14.75;;;;;;;-1.18;100.00;101298.75;6029086;29;20045;-89
2022/03/03 00:06:15;;;;;;;27.25;15.00;;;;;;;-1.21;100.00;101292.03;6040830;29;20056;-89
2022/03/03 00:09:18;;;;;;;29.55;17.38;;;;;;;-1.20;100.00;101287.78;6038131;29;20057;-89
2022/03/03 00:12:21;;;;;;;27.63;15.77;;;;;;;-1.22;100.00;101282.72;6029217;29;20043;-89
2022/03/03 00:15:23;;;;;;;30.50;16.73;;;;;;;-1.22;100.00;101282.72;6040533;29;20045;-89
2022/03/03 00:18:24;;;;;;;30.23;16.42;;;;;;;-1.15;100.00;101286.81;6036709;29;20052;-89
2022/03/03 00:21:27;;;;;;;25.80;15.88;;;;;;;-1.09;100.00;101288.44;6045363;29;20407;-89
2022/03/03 00:24:30;;;;;;;28.35;15.38;;;;;;;-1.06;100.00;101282.47;6024816;29;20045;-89
2022/03/03 00:27:32;;;;;;;31.58;16.02;;;;;;;-1.03;100.00;101274.78;6047704;29;20080;-89
2022/03/03 00:30:34;;;;;;;29.95;15.25;;;;;;;-1.03;100.00;101278.16;6031280;29;20609;-89
2022/03/03 00:33:36;;;;;;;30.05;16.05;;;;;;;-1.06;100.00;101275.69;6033841;29;20193;-89
2022/03/03 00:36:38;;;;;;;33.20;18.17;;;;;;;-0.93;100.00;101276.28;6032622;29;20041;-89
2022/03/03 00:39:40;;;;;;;26.55;15.75;;;;;;;-0.75;100.00;101281.00;6045580;29;20041;-89
2022/03/03 00:42:42;;;;;;;28.45;16.83;;;;;;;-0.89;100.00;101272.81;6044434;29;20354;-89
2022/03/03 00:45:45;;;;;;;31.25;16.60;;;;;;;-1.05;100.00;101262.09;6043440;29;20768;-89
2022/03/03 00:48:47;;;;;;;30.05;16.33;;;;;;;-1.18;100.00;101248.78;6041586;29;20048;-89
2022/03/03 00:51:50;;;;;;;27.13;15.43;;;;;;;-1.20;100.00;101247.97;6028316;29;20060;-89
2022/03/03 00:54:52;;;;;;;24.30;15.38;;;;;;;-1.27;100.00;101237.97;6017316;29;20061;-89
2022/03/03 00:57:55;;;;;;;29.85;16.63;;;;;;;-1.34;100.00;101238.09;6044515;29;20041;-89
2022/03/03 01:00:57;;;;;;;32.92;17.92;;;;;;;-1.37;100.00;101234.75;6026809;29;20063;-89
2022/03/03 01:04:00;;;;;;;32.35;18.08;;;;;;;-1.38;100.00;101238.16;6023988;29;20048;-89
2022/03/03 01:07:04;;;;;;;27.67;15.68;;;;;;;-1.37;100.00;101245.75;6042177;29;20587;-89
2022/03/03 01:10:09;;;;;;;33.35;17.65;;;;;;;-1.36;100.00;101249.97;6027478;29;20059;-89
2022/03/03 01:13:12;;;;;;;30.55;16.00;;;;;;;-1.36;100.00;101249.13;6024323;29;20054;-89
2022/03/03 01:16:14;;;;;;;26.52;16.30;;;;;;;-1.37;100.00;101255.06;6018994;29;20064;-89
2022/03/03 01:19:17;;;;;;;29.70;16.95;;;;;;;-0.98;100.00;101247.59;6036557;29;20182;-89
2022/03/03 01:22:19;;;;;;;32.35;17.65;;;;;;;-1.03;100.00;101249.38;6042066;29;20049;-89
2022/03/03 01:25:21;;;;;;;28.42;15.82;;;;;;;-1.21;100.00;101243.78;6028549;29;20616;-89
2022/03/03 01:28:24;;;;;;;29.08;16.65;;;;;;;-1.29;100.00;101238.00;6045945;29;20053;-89
2022/03/03 01:31:26;;;;;;;28.63;15.63;;;;;;;-1.30;100.00;101232.06;6041082;29;20172;-89
2022/03/03 01:34:29;;;;;;;31.15;16.58;;;;;;;-1.35;100.00;101222.88;6045491;29;20136;-89
2022/03/03 01:37:31;;;;;;;32.33;17.58;;;;;;;-1.39;100.00;101222.09;6027886;29;20037;-89
2022/03/03 01:40:33;;;;;;;29.85;16.90;;;;;;;-1.41;100.00;101221.28;6040182;29;20497;-89
2022/03/03 01:43:37;;;;;;;29.35;16.73;;;;;;;-1.43;100.00;101232.34;6022805;29;20045;-89
2022/03/03 01:46:56;;;;;;;30.13;17.00;;;;;;;-1.47;100.00;101233.25;6029850;29;20518;-89
2022/03/03 01:49:59;;;;;;;30.40;17.42;;;;;;;-1.53;100.00;101232.50;6036836;29;20045;-89
2022/03/03 01:53:03;;;;;;;32.08;17.25;;;;;;;-1.60;100.00;101230.91;6035568;29;20412;-89
2022/03/03 01:56:07;;;;;;;30.95;16.52;;;;;;;-1.63;100.00;101227.59;6031586;29;20455;-89
2022/03/03 01:59:09;;;;;;;32.10;17.35;;;;;;;-1.66;100.00;101231.03;6011054;29;20048;-89
2022/03/03 02:02:12;;;;;;;30.10;16.25;;;;;;;-1.71;100.00;101227.75;6031632;29;20056;-89
2022/03/03 02:05:15;;;;;;;29.73;16.80;;;;;;;-1.80;100.00;101236.31;6044617;29;20048;-89
2022/03/03 02:08:17;;;;;;;32.60;18.27;;;;;;;-1.84;100.00;101231.31;6042875;29;20422;-89
2022/03/03 02:11:23;;;;;;;29.65;17.60;;;;;;;-1.74;100.00;101228.63;6046104;29;20090;-89
2022/03/03 02:14:25;;;;;;;31.70;17.92;;;;;;;-1.85;100.00;101220.34;6034425;29;20049;-89
2022/03/03 02:17:28;;;;;;;31.00;17.05;;;;;;;-1.89;100.00;101220.41;6036401;29;20044;-89
2022/03/03 02:20:31;;;;;;;27.90;16.20;;;;;;;-1.93;100.00;101216.28;6037025;29;20073;-89
2022/03/03 02:23:33;;;;;;;31.67;17.58;;;;;;;-1.92;100.00;101206.09;6039938;29;20087;-89
2022/03/03 02:26:39;;;;;;;29.50;16.45;;;;;;;-2.00;100.00;101218.91;6038361;29;20069;-89
2022/03/03 02:29:41;;;;;;;28.45;16.73;;;;;;;-2.02;100.00;101213.00;6039103;29;20049;-89
2022/03/03 02:32:44;;;;;;;33.72;17.42;;;;;;;-2.06;100.00;101219.00;6027444;29;20136;-89
2022/03/03 02:35:46;;;;;;;33.95;17.90;;;;;;;-2.07;100.00;101219.00;6038773;29;20046;-89
2022/03/03 02:38:51;;;;;;;33.15;18.10;;;;;;;-2.09;100.00;101213.94;6042251;29;20056;-89
2022/03/03 02:41:54;;;;;;;35.38;18.17;;;;;;;-2.11;100.00;101219.91;6022348;29;20764;-89
2022/03/03 02:44:56;;;;;;;34.55;17.10;;;;;;;-2.15;100.00;101220.84;6042193;29;20209;-89
2022/03/03 02:47:59;;;;;;;32.03;18.45;;;;;;;-2.18;100.00;101219.19;6042763;29;20049;-89
2022/03/03 02:51:01;;;;;;;32.97;17.65;;;;;;;-2.21;100.00;101225.16;6026416;29;20084;-89
2022/03/03 02:54:04;;;;;;;29.05;16.50;;;;;;;-2.23;100.00;101220.97;6032388;29;20064;-89
2022/03/03 03:00:34;;;;;;;31.33;16.90;;;;;;;-2.25;100.00;101222.69;6044684;29;20502;-89
2022/03/03 03:03:38;;;;;;;31.73;17.63;;;;;;;-2.27;100.00;101224.38;6041830;29;20049;-89
2022/03/03 03:06:40;;;;;;;32.85;16.08;;;;;;;-2.26;100.00;101226.91;6027922;29;20037;-89
2022/03/03 03:09:42;;;;;;;28.35;15.85;;;;;;;-2.27;100.00;101219.31;6044111;29;20064;-89
2022/03/03 03:12:45;;;;;;;30.65;16.45;;;;;;;-2.26;100.00;101220.97;6047489;29;20049;-89
2022/03/03 03:15:47;;;;;;;28.48;16.25;;;;;;;-2.35;100.00;101213.53;6051068;29;20183;-89
2022/03/03 03:19:02;;;;;;;29.15;15.82;;;;;;;-2.42;100.00;101207.69;6040835;29;20162;-89
2022/03/03 03:22:04;;;;;;;32.22;16.30;;;;;;;-2.46;100.00;101206.91;6039337;29;20542;-89
2022/03/03 03:25:12;;;;;;;30.08;16.65;;;;;;;-2.49;100.00;101219.59;6044956;29;20129;-89
2022/03/03 03:28:28;;;;;;;32.65;16.00;;;;;;;-2.52;100.00;101216.28;6038842;29;20531;-89
2022/03/03 03:31:31;;;;;;;30.33;15.95;;;;;;;-2.56;100.00;101212.94;6025137;29;20049;-89
2022/03/03 03:34:33;;;;;;;32.15;17.02;;;;;;;-2.56;100.00;101201.97;6044216;29;20056;-89
2022/03/03 03:37:36;;;;;;;30.63;16.48;;;;;;;-2.58;100.00;101209.63;6045251;29;20045;-89
2022/03/03 03:40:39;;;;;;;30.27;16.80;;;;;;;-2.56;100.00;101201.97;6046679;29;20406;-89
2022/03/03 03:43:41;;;;;;;30.08;16.27;;;;;;;-2.61;100.00;101194.44;6048821;29;20075;-89
2022/03/03 03:46:44;;;;;;;29.45;15.55;;;;;;;-2.56;100.00;101204.50;6045979;29;20064;-89
2022/03/03 03:49:46;;;;;;;29.85;15.45;;;;;;;-2.56;100.00;101192.66;6053400;29;20057;-89
2022/03/03 03:52:48;;;;;;;34.78;17.20;;;;;;;-2.60;100.00;101193.59;6046475;29;20057;-89
2022/03/03 03:55:51;;;;;;;27.35;15.45;;;;;;;-2.61;100.00;101186.84;6044343;29;20100;-89
2022/03/03 03:58:54;;;;;;;33.03;17.25;;;;;;;-2.64;100.00;101180.13;6047140;29;20056;-89
2022/03/03 04:01:57;;;;;;;30.17;16.08;;;;;;;-2.65;100.00;101186.06;6048188;29;20132;-89
2022/03/03 04:04:59;;;;;;;30.05;16.42;;;;;;;-2.68;100.00;101182.72;6047968;29;20045;-89
2022/03/03 04:08:02;;;;;;;33.83;16.98;;;;;;;-2.69;100.00;101184.41;6043566;29;20116;-89
2022/03/03 04:11:04;;;;;;;30.65;17.23;;;;;;;-2.68;100.00;101182.72;6040058;29;20041;-89
2022/03/03 04:14:06;;;;;;;34.83;17.50;;;;;;;-2.66;100.00;101178.47;6030714;29;20049;-89
2022/03/03 04:17:22;;;;;;;32.40;16.50;;;;;;;-2.73;100.00;101184.47;6036172;29;20358;-89
2022/03/03 04:20:27;;;;;;;30.67;16.33;;;;;;;-2.72;100.00;101193.75;6046928;29;20045;-89
2022/03/03 04:23:42;;;;;;;32.08;16.38;;;;;;;-2.69;100.00;101193.72;6044750;29;20059;-89
2022/03/03 04:26:44;;;;;;;30.15;17.45;;;;;;;-2.71;100.00;101187.81;6036325;29;20411;-89
2022/03/03 04:29:46;;;;;;;31.85;16.70;;;;;;;-2.66;100.00;101192.00;6043328;29;20605;-89
2022/03/03 04:32:48;;;;;;;31.20;17.95;;;;;;;-2.66;100.00;101183.53;6027921;29;20506;-89
2022/03/03 04:35:51;;;;;;;30.70;16.42;;;;;;;-2.67;100.00;101184.41;6045298;29;20793;-89
2022/03/03 04:38:53;;;;;;;31.85;16.58;;;;;;;-2.70;100.00;101180.22;6046036;29;20064;-89
2022/03/03 04:41:55;;;;;;;32.13;17.13;;;;;;;-2.75;100.00;101187.03;6030735;29;20045;-89
2022/03/03 04:44:57;;;;;;;35.17;16.15;;;;;;;-2.78;100.00;101178.63;6046967;29;20076;-89
2022/03/03 04:47:59;;;;;;;30.13;16.52;;;;;;;-2.80;100.00;101175.31;6033274;29;20064;-89
2022/03/03 04:51:03;;;;;;;29.88;16.58;;;;;;;-2.87;100.00;101185.50;6039407;29;20044;-89
2022/03/03 04:54:07;;;;;;;33.63;16.75;;;;;;;-2.90;100.00;101188.06;6041174;29;20049;-89
2022/03/03 04:57:09;;;;;;;32.55;16.23;;;;;;;-2.88;100.00;101170.31;6046324;29;20105;-89
2022/03/03 05:00:13;;;;;;;34.55;16.88;;;;;;;-2.86;100.00;101183.78;6045124;29;20722;-89
2022/03/03 05:03:14;;;;;;;29.65;16.40;;;;;;;-2.87;100.00;101182.97;6022324;29;20072;-89
2022/03/03 05:06:20;;;;;;;29.50;16.17;;;;;;;-2.89;100.00;101186.38;6045084;29;20710;-89
2022/03/03 05:09:29;;;;;;;29.13;16.60;;;;;;;-2.89;100.00;101194.81;6042793;29;20052;-89
2022/03/03 05:12:31;;;;;;;31.67;17.17;;;;;;;-2.90;100.00;101198.22;6043487;29;20407;-89
2022/03/03 05:15:33;;;;;;;29.40;16.60;;;;;;;-2.92;100.00;101197.38;6019457;29;20061;-89
2022/03/03 05:18:36;;;;;;;33.17;17.42;;;;;;;-2.93;100.00;101194.84;6040496;29;20045;-89
2022/03/03 05:21:38;;;;;;;31.50;16.58;;;;;;;-2.93;100.00;101193.19;6042202;29;20081;-89
2022/03/03 05:24:50;;;;;;;32.83;16.90;;;;;;;-2.92;100.00;101201.63;6045673;29;20060;-89
2022/03/03 05:27:52;;;;;;;28.95;17.15;;;;;;;-2.95;100.00;101206.72;6043461;29;20472;-89
2022/03/03 05:30:54;;;;;;;36.15;17.48;;;;;;;-2.95;100.00;101192.38;6037501;29;20101;-89
2022/03/03 05:33:57;;;;;;;33.90;16.45;;;;;;;-2.95;100.00;101192.38;6024124;29;20418;-89
2022/03/03 05:37:00;;;;;;;30.02;16.08;;;;;;;-2.99;100.00;101195.78;6028969;29;20106;-89
2022/03/03 05:40:03;;;;;;;32.55;17.35;;;;;;;-2.99;100.00;101203.38;6041451;29;20041;-89
2022/03/03 05:43:09;;;;;;;31.83;16.45;;;;;;;-2.97;100.00;101205.91;6044086;29;20459;-89
2022/03/03 05:46:14;;;;;;;30.63;15.95;;;;;;;-2.98;100.00;101206.75;6044815;29;20048;-89
2022/03/03 05:49:23;;;;;;;30.98;16.33;;;;;;;-3.01;100.00;101206.78;6048206;29;20057;-89
2022/03/03 05:52:26;;;;;;;34.03;17.48;;;;;;;-3.02;100.00;101213.53;6021693;29;20101;-89
2022/03/03 05:55:29;;;;;;;29.45;16.13;;;;;;;-3.04;100.00;101217.78;6018141;29;20048;-89
2022/03/03 05:58:48;;;;;;;35.60;16.90;;;;;;;-3.08;100.00;101218.66;6052226;29;20044;-89
2022/03/03 06:01:51;;;;;;;33.25;17.52;;;;;;;-3.04;100.00;101222.84;6021530;29;20149;-89
2022/03/03 06:04:53;;;;;;;32.65;17.83;;;;;;;-3.00;100.00;101205.94;6021914;29;20141;-89
2022/03/03 06:08:04;;;;;;;33.20;16.80;;;;;;;-3.05;100.00;101219.50;6022430;29;20049;-89
2022/03/03 06:11:13;;;;;;;29.73;17.08;;;;;;;-3.03;100.00;101212.72;6037553;29;20041;-89
2022/03/03 06:14:26;;;;;;;32.78;16.73;;;;;;;-3.03;100.00;101205.13;6041604;29;20399;-89
2022/03/03 06:17:30;;;;;;;31.33;16.30;;;;;;;-3.00;100.00;101195.81;6034198;29;20148;-89
2022/03/03 06:20:34;;;;;;;29.30;16.10;;;;;;;-3.02;100.00;101198.34;6028665;29;20199;-89
2022/03/03 06:23:36;;;;;;;30.15;15.98;;;;;;;-3.01;100.00;101199.19;6043592;29;20507;-89
2022/03/03 06:26:39;;;;;;;32.85;16.63;;;;;;;-3.05;100.00;101201.75;6027486;29;20116;-89
2022/03/03 06:29:41;;;;;;;32.10;16.83;;;;;;;-3.01;100.00;101197.47;6033034;29;20161;-89
2022/03/03 06:32:44;;;;;;;29.10;15.52;;;;;;;-2.99;100.00;101197.47;6026424;29;20551;-89
2022/03/03 06:35:46;;;;;;;29.92;15.35;;;;;;;-2.96;100.00;101198.25;6039231;29;20080;-89
2022/03/03 06:38:48;;;;;;;29.95;15.10;;;;;;;-2.97;100.00;101195.78;6027131;29;20053;-89
2022/03/03 06:41:51;;;;;;;29.08;15.70;;;;;;;-2.92;100.00;101204.97;6034971;29;20174;-89
2022/03/03 06:44:54;;;;;;;35.08;16.10;;;;;;;-2.91;100.00;101199.03;6041707;29;20049;-89
2022/03/03 06:47:58;;;;;;;34.22;16.70;;;;;;;-2.84;100.00;101200.66;6038724;29;20041;-89
2022/03/03 06:51:04;;;;;;;33.55;16.15;;;;;;;-2.85;100.00;101193.09;6042204;29;20124;-89
2022/03/03 06:54:13;;;;;;;31.90;16.75;;;;;;;-2.78;100.00;101186.22;6039460;29;20060;-89
2022/03/03 06:57:18;;;;;;;42.33;17.15;;;;;;;-2.75;100.00;101189.56;6039229;29;20120;-89
2022/03/03 07:00:23;;;;;;;29.73;16.70;;;;;;;-2.76;100.00;101195.47;6048490;29;20053;-89
2022/03/03 07:03:25;;;;;;;31.60;16.77;;;;;;;-2.73;100.00;101204.72;6038196;29;20049;-89
2022/03/03 07:06:28;;;;;;;39.28;17.20;;;;;;;-2.64;100.00;101199.56;6041866;29;20045;-89
2022/03/03 07:09:31;;;;;;;33.63;16.17;;;;;;;-2.59;100.00;101197.78;6044193;29;20083;-89
2022/03/03 07:12:34;;;;;;;34.15;16.15;;;;;;;-2.54;100.00;101192.66;6045424;29;20052;-89
2022/03/03 07:15:49;;;;;;;29.23;15.88;;;;;;;-2.54;100.00;101201.09;6045319;29;20045;-89
2022/03/03 07:18:54;;;;;;;33.85;17.13;;;;;;;-2.50;100.00;101190.06;6029234;29;20459;-89
2022/03/03 07:22:31;;;;;;;35.53;16.95;;;;;;;-2.45;100.00;101187.47;6044668;29;20499;-89
2022/03/03 07:25:40;;;;;;;31.63;17.40;;;;;;;-2.41;100.00;101187.41;6046190;29;20056;-89
2022/03/03 07:28:49;;;;;;;36.45;17.40;;;;;;;-2.35;100.00;101188.19;6047831;29;20060;-89
2022/03/03 07:31:56;;;;;;;32.75;16.23;;;;;;;-2.27;100.00;101193.97;6045428;29;20060;-89
2022/03/03 07:35:01;;;;;;;35.95;18.25;;;;;;;-2.24;100.00;101191.38;6048257;29;20052;-90
2022/03/03 07:38:14;;;;;;;40.25;18.45;;;;;;;-2.15;100.00;101195.47;6027838;29;20558;-89
2022/03/03 07:41:17;;;;;;;36.33;19.08;;;;;;;-2.10;100.00;101186.09;6046200;29;20561;-89
2022/03/03 07:44:20;;;;;;;36.42;19.73;;;;;;;-2.08;100.00;101190.28;6047301;29;20513;-89
2022/03/03 07:47:23;;;;;;;37.22;20.40;;;;;;;-1.99;100.00;101195.22;6048835;29;20437;-89
2022/03/03 07:50:26;;;;;;;33.38;18.75;;;;;;;-1.94;100.00;101187.50;6039104;29;20045;-89
2022/03/03 07:53:43;;;;;;;39.25;18.40;;;;;;;-1.90;100.00;101168.84;6044366;29;20049;-89
2022/03/03 07:56:54;;;;;;;38.55;19.50;;;;;;;-1.87;100.00;101175.56;6040425;29;20056;-89
2022/03/03 08:00:03;;;;;;;37.05;18.73;;;;;;;-1.82;100.00;101174.63;6049737;29;20055;-89
2022/03/03 08:03:08;;;;;;;37.95;19.67;;;;;;;-1.77;100.00;101169.47;6045446;29;20499;-89
2022/03/03 08:06:15;;;;;;;35.25;18.83;;;;;;;-1.71;100.00;101153.28;6038835;29;20053;-90
2022/03/03 08:09:19;;;;;;;37.65;19.25;;;;;;;-1.64;100.00;101168.41;6046644;29;20498;-89
2022/03/03 08:12:22;;;;;;;42.45;20.40;;;;;;;-1.61;100.00;101168.34;6038943;29;20124;-90
2022/03/03 08:15:25;;;;;;;39.75;19.00;;;;;;;-1.55;100.00;101168.22;6044031;29;20167;-89
2022/03/03 08:18:35;;;;;;;36.90;20.00;;;;;;;-1.45;100.00;101175.66;6027852;29;20041;-90
2022/03/03 08:21:37;;;;;;;32.63;18.23;;;;;;;-1.35;100.00;101182.25;6047778;29;20088;-90
2022/03/03 08:24:43;;;;;;;37.47;19.00;;;;;;;-1.24;100.00;101182.88;6026816;29;20051;-89
2022/03/03 08:27:45;;;;;;;35.00;18.42;;;;;;;-1.06;100.00;101188.47;6045786;29;20049;-90
2022/03/03 08:30:48;;;;;;;35.65;19.42;;;;;;;-0.90;100.00;101197.44;6044265;29;20128;-89
2022/03/03 08:34:12;;;;;;;36.15;18.55;;;;;;;-0.81;100.00;101201.50;6048929;29;20052;-89
2022/03/03 08:37:28;;;;;;;39.22;19.67;;;;;;;-0.69;100.00;101208.88;6030081;29;20518;-90
2022/03/03 08:40:31;;;;;;;38.70;19.25;;;;;;;-0.63;100.00;101200.28;6024038;29;20068;-90
2022/03/03 08:43:33;;;;;;;36.38;19.00;;;;;;;-0.63;100.00;101207.91;6010940;29;20048;-89
2022/03/03 08:46:39;;;;;;;34.90;18.08;;;;;;;-0.50;100.00;101207.63;6046919;29;20077;-89
2022/03/03 08:49:44;;;;;;;33.30;17.90;;;;;;;-0.42;100.00;101207.44;6033262;29;20053;-89
2022/03/03 08:52:47;;;;;;;37.35;19.38;;;;;;;-0.48;100.00;101212.66;6028297;29;20088;-90
2022/03/03 08:55:51;;;;;;;32.13;17.38;;;;;;;-0.45;100.00;101222.75;6035904;29;20615;-89
2022/03/03 08:58:54;;;;;;;32.47;18.70;;;;;;;-0.45;100.00;101231.22;6046562;29;20063;-89
2022/03/03 09:01:57;;;;;;;30.75;18.35;;;;;;;-0.31;100.00;101228.38;6020545;29;20080;-90
2022/03/03 09:04:59;;;;;;;36.55;19.70;;;;;;;-0.10;100.00;101227.06;6043955;29;20139;-89
2022/03/03 09:08:01;;;;;;;34.08;18.92;;;;;;;-0.05;100.00;101229.47;6045798;29;20133;-90
2022/03/03 09:11:04;;;;;;;33.22;19.40;;;;;;;0.01;100.00;101219.16;6042221;29;20048;-90
2022/03/03 09:14:07;;;;;;;32.75;19.70;;;;;;;0.01;100.00;101219.16;6038634;29;20042;-90
2022/03/03 09:17:10;;;;;;;34.35;20.38;;;;;;;0.04;100.00;101224.16;6039058;29;20049;-90
2022/03/03 09:20:14;;;;;;;40.70;20.77;;;;;;;0.11;100.00;101220.59;6049427;29;20053;-90
2022/03/03 09:23:18;;;;;;;36.53;18.45;;;;;;;0.14;100.00;101212.88;6051756;29;20224;-90
2022/03/03 09:26:20;;;;;;;34.28;18.30;;;;;;;0.18;100.00;101211.13;6058219;29;20053;-90
2022/03/03 09:29:23;;;;;;;31.33;18.45;;;;;;;0.27;100.00;101213.41;6056423;29;20049;-90
2022/03/03 09:32:25;;;;;;;31.05;16.90;;;;;;;0.37;100.00;101219.09;6056161;29;20443;-90
2022/03/03 09:35:28;;;;;;;31.30;18.52;;;;;;;0.42;100.00;101209.63;6047217;29;20064;-90
2022/03/03 09:38:30;;;;;;;34.05;18.30;;;;;;;0.53;100.00;101215.31;6050805;29;20196;-90
2022/03/03 09:41:34;;;;;;;33.22;17.38;;;;;;;0.63;100.00;101221.00;6048880;29;20182;-90
2022/03/03 09:44:36;;;;;;;35.67;18.20;;;;;;;0.72;100.00;101212.25;6050804;29;20052;-90
2022/03/03 09:47:39;;;;;;;33.97;18.75;;;;;;;0.85;100.00;101214.44;6054554;29;20056;-90
2022/03/03 09:50:43;;;;;;;29.98;17.88;;;;;;;1.01;100.00;101204.63;6068073;29;20085;-90
2022/03/03 09:53:51;;;;;;;32.58;18.42;;;;;;;1.16;100.00;101211.00;6045238;29;20049;-90
2022/03/03 09:56:53;;;;;;;36.40;18.73;;;;;;;1.38;100.00;101202.75;6056938;29;20587;-91
2022/03/03 09:59:57;;;;;;;29.83;18.13;;;;;;;1.47;100.00;101208.41;6066022;29;20109;-91
2022/03/03 10:03:08;;;;;;;29.98;17.17;;;;;;;1.54;100.00;101201.41;6063479;29;20044;-91
2022/03/03 10:06:11;;;;;;;31.52;17.50;;;;;;;1.61;100.00;101199.50;6066250;29;20041;-91
2022/03/03 10:09:26;;;;;;;32.47;18.40;;;;;;;1.70;100.00;101206.88;6064761;29;20393;-90
2022/03/03 10:12:45;;;;;;;28.23;17.63;;;;;;;1.80;100.00;101202.31;6079492;29;20079;-91
2022/03/03 10:15:59;;;;;;;30.55;17.77;;;;;;;1.93;100.00;101201.84;6061470;29;20050;-91
2022/03/03 10:19:05;;;;;;;30.67;18.38;;;;;;;2.07;100.00;101203.97;6073455;29;20063;-91
2022/03/03 10:22:08;;;;;;;30.52;17.50;;;;;;;2.23;100.00;101206.84;6049971;29;20045;-91
2022/03/03 10:25:26;;;;;;;30.30;17.77;;;;;;;2.38;100.00;101210.59;6084077;29;20376;-91
2022/03/03 10:28:34;;;;;;;32.60;17.33;;;;;;;2.53;100.00;101209.25;6072220;29;20410;-91
2022/03/03 10:31:48;;;;;;;32.10;17.45;;;;;;;2.62;100.00;101206.38;6072415;29;20378;-91
2022/03/03 10:34:55;;;;;;;30.85;17.15;;;;;;;2.63;100.00;101205.47;6050497;29;20553;-90
2022/03/03 10:38:04;;;;;;;28.52;16.95;;;;;;;2.79;100.00;101221.13;6096936;29;20071;-91
2022/03/03 10:41:06;;;;;;;29.25;15.73;;;;;;;2.87;100.00;101206.34;6067838;29;20056;-91
2022/03/03 10:44:28;;;;;;;29.55;15.63;;;;;;;2.98;100.00;101209.38;6077469;29;20124;-91
2022/03/03 10:47:33;;;;;;;27.40;15.45;;;;;;;3.13;98.55;101214.78;6067783;29;20111;-91
2022/03/03 10:50:51;;;;;;;24.88;14.75;;;;;;;3.31;99.19;101205.63;6087893;29;20051;-91
2022/03/03 10:54:02;;;;;;;28.05;15.68;;;;;;;3.48;95.76;101203.25;6150623;23;20157;-91
2022/03/03 10:57:51;;;;;;;22.95;14.10;;;;;;;3.53;94.97;101192.81;6124817;29;20051;-91
2022/03/03 11:00:57;;;;;;;31.70;15.10;;;;;;;3.64;95.17;101195.78;6113112;29;20091;-91
2022/03/03 11:04:00;;;;;;;24.25;14.20;;;;;;;3.71;93.13;101193.84;6107398;29;20339;-91
2022/03/03 11:07:03;;;;;;;25.13;15.18;;;;;;;3.85;90.32;101192.41;6122732;29;20525;-91
2022/03/03 11:10:10;;;;;;;30.30;15.60;;;;;;;3.87;89.27;101198.25;6112300;29;20099;-91
2022/03/03 11:13:12;;;;;;;26.02;14.93;;;;;;;3.96;87.64;101196.25;6220043;23;20066;-91
2022/03/03 11:16:16;;;;;;;23.42;14.20;;;;;;;4.06;85.51;101197.53;6107905;29;20067;-91
2022/03/03 11:19:19;;;;;;;24.40;14.52;;;;;;;4.07;88.23;101191.50;6095921;29;20059;-91
2022/03/03 11:22:22;;;;;;;25.88;14.73;;;;;;;4.09;86.94;101185.41;6071430;29;20044;-91
2022/03/03 11:25:31;;;;;;;21.58;14.25;;;;;;;4.23;86.80;101181.47;6109236;29;20056;-91
2022/03/03 11:28:36;;;;;;;;;;;;;;;4.40;86.00;101184.16;6100075;29;20044;-91
2022/03/03 11:31:40;;;;;;;25.85;13.70;;;;;;;4.63;82.22;101183.16;6091297;29;19943;-91
2022/03/03 11:34:49;;;;;;;22.55;14.23;;;;;;;4.64;79.85;101173.72;6098673;29;20508;-91
2022/03/03 11:37:52;;;;;;;26.17;14.88;;;;;;;4.82;80.88;101178.06;6102335;29;20051;-91
2022/03/03 11:40:57;;;;;;;29.25;13.95;;;;;;;4.87;78.90;101171.00;6099902;29;20421;-91
2022/03/03 11:44:00;;;;;;;23.10;13.75;;;;;;;4.90;79.69;101160.59;6092171;29;20060;-91
2022/03/03 11:47:20;;;;;;;21.05;12.63;;;;;;;4.95;77.36;101162.94;6080319;29;20059;-91
2022/03/03 11:50:25;;;;;;;23.30;13.45;;;;;;;4.94;75.10;101172.38;6083432;29;20047;-91
2022/03/03 11:53:27;;;;;;;23.77;13.52;;;;;;;5.05;73.69;101158.22;6096498;29;20051;-91
2022/03/03 11:56:30;;;;;;;24.40;12.82;;;;;;;5.08;70.56;101158.09;6092043;29;20099;-90
2022/03/03 11:59:40;;;;;;;22.27;13.48;;;;;;;5.11;71.43;101157.94;6080352;29;20047;-91
2022/03/03 12:03:05;;;;;;;23.00;12.23;;;;;;;5.19;70.35;101150.72;6091167;29;20509;-91
2022/03/03 12:06:11;;;;;;;22.45;12.70;;;;;;;5.24;69.72;101155.63;6100720;29;20064;-91
2022/03/03 12:09:24;;;;;;;25.70;14.20;;;;;;;5.25;68.88;101158.13;6100317;29;20036;-91
2022/03/03 12:12:31;;;;;;;25.83;13.05;;;;;;;5.31;67.35;101151.88;6096659;29;20059;-91
2022/03/03 12:15:37;;;;;;;24.30;13.35;;;;;;;5.40;68.71;101152.28;6096627;29;20048;-91
2022/03/03 12:18:45;;;;;;;22.83;14.30;;;;;;;5.48;67.28;101151.09;6084986;29;20126;-91
2022/03/03 12:21:48;;;;;;;20.20;12.13;;;;;;;5.55;65.14;101137.88;6090808;29;20047;-91
2022/03/03 12:24:52;;;;;;;23.35;12.57;;;;;;;5.74;65.47;101150.69;6072963;29;20040;-91
2022/03/03 12:28:14;;;;;;;20.20;12.40;;;;;;;5.82;67.14;101133.16;6099235;29;20052;-91
2022/03/03 12:31:40;;;;;;;22.17;13.10;;;;;;;5.88;65.50;101144.84;6093733;29;20044;-91
2022/03/03 12:34:45;;;;;;;22.40;12.48;;;;;;;6.06;66.29;101142.31;6071840;29;20405;-91
2022/03/03 12:37:48;;;;;;;24.02;12.55;;;;;;;6.09;61.22;101145.56;6090907;29;20092;-91
2022/03/03 12:40:52;;;;;;;22.92;13.43;;;;;;;6.10;63.38;101138.69;6095750;29;20389;-91
2022/03/03 12:44:05;;;;;;;23.00;12.00;;;;;;;6.17;61.50;101137.47;6096257;29;20055;-90
2022/03/03 12:47:08;;;;;;;18.83;11.60;;;;;;;6.30;60.74;101132.53;6097651;29;20036;-90
2022/03/03 12:50:29;;;;;;;21.13;11.75;;;;;;;6.28;60.43;101132.59;6091521;29;20058;-91
2022/03/03 12:53:47;;;;;;;24.60;12.90;;;;;;;6.39;61.33;101122.59;6061945;29;20493;-91
2022/03/03 12:57:04;;;;;;;21.50;11.77;;;;;;;6.52;59.63;101120.22;6093714;29;20855;-91
2022/03/03 13:00:11;;;;;;;20.52;11.40;;;;;;;6.57;58.64;101118.22;6091757;29;20048;-91
2022/03/03 13:03:15;;;;;;;22.38;11.32;;;;;;;6.52;60.40;101114.25;6091056;29;20530;-91
2022/03/03 13:06:23;;;;;;;22.02;12.18;;;;;;;6.51;57.52;101113.41;6090981;29;20045;-90
2022/03/03 13:09:25;;;;;;;18.83;11.20;;;;;;;6.60;62.79;101115.50;6073687;29;20043;-90
2022/03/03 13:12:42;;;;;;;21.88;11.85;;;;;;;6.54;61.93;101115.81;6093747;29;20059;-90
2022/03/03 13:15:44;;;;;;;22.60;12.13;;;;;;;6.75;58.49;101116.41;6075265;29;20048;-91
2022/03/03 13:18:47;;;;;;;23.00;12.38;;;;;;;6.81;58.34;101113.53;6089518;29;20560;-90
2022/03/03 13:21:49;;;;;;;20.40;11.65;;;;;;;6.78;59.25;101116.28;6070680;29;20040;-91
2022/03/03 13:25:21;;;;;;;25.27;12.75;;;;;;;6.90;58.70;101110.44;6071439;29;20490;-90
2022/03/03 13:28:24;;;;;;;20.00;12.20;;;;;;;7.07;58.78;101106.94;6088197;29;20044;-90
2022/03/03 13:31:41;;;;;;;21.08;11.60;;;;;;;7.35;58.02;101110.56;6096213;29;20383;-91
2022/03/03 13:34:45;;;;;;;21.95;11.55;;;;;;;7.44;58.96;101107.47;6093538;29;20044;-91
2022/03/03 13:37:48;;;;;;;20.30;10.48;;;;;;;7.51;56.83;101108.81;6070886;29;20064;-90
2022/03/03 13:40:50;;;;;;;19.08;10.50;;;;;;;7.57;56.57;101110.19;6077698;29;20047;-91
2022/03/03 13:44:15;;;;;;;19.27;10.38;;;;;;;7.61;56.63;101113.44;6091614;29;20040;-90
2022/03/03 13:47:26;;;;;;;19.40;10.52;;;;;;;7.82;56.07;101109.59;6076275;29;20485;-91
2022/03/03 13:50:29;;;;;;;17.90;10.30;;;;;;;7.70;58.75;101106.00;6075258;29;20412;-90
2022/03/03 13:53:32;;;;;;;19.27;10.63;;;;;;;7.76;59.07;101104.81;6085936;29;20036;-91
2022/03/03 13:56:34;;;;;;;21.90;10.55;;;;;;;7.94;59.55;101108.06;6092891;29;20040;-91
2022/03/03 13:59:56;;;;;;;22.88;12.05;;;;;;;7.94;57.34;101097.75;6093733;29;20044;-91
2022/03/03 14:03:02;;;;;;;29.05;10.55;;;;;;;7.84;56.24;101104.38;6077464;29;20040;-91